Time;durP1;ratioP1;P1;durP2;ratioP2;P2;SDS_P1;SDS_P2;PMS_P1;PMS_P2;Temp;Humidity;BMP_temperature;BMP_pressure;BME280_temperature;BME280_humidity;BME280_pressure;Samples;Min_cycle;Max_cycle;Signal;HPM_P1;HPM_P2
2022/12/04 00:00:43;;;;;;;;;;;;;;;;;;5043062;28;20060;-64
2022/12/04 00:03:09;;;;;;;;;;;;;;;;;;5044236;28;19925;-64
2022/12/04 00:05:35;;;;;;;;;;;;;;;;;;5027871;28;19925;-64
2022/12/04 00:08:02;;;;;;;;;;;;;;;;;;5029835;28;19921;-64
2022/12/04 00:10:28;;;;;;;;;;;;;;;;;;5036456;28;20327;-64
2022/12/04 00:12:54;;;;;;;;;;;;;;;;;;5045916;28;19925;-64
2022/12/04 00:15:20;;;;;;;;;;;;;;;;;;5038103;28;20325;-64
2022/12/04 00:17:45;;;;;;;;;;;;;;;;;;5043548;28;20039;-64
2022/12/04 00:20:11;;;;;;;;;;;;;;;;;;5037039;28;19931;-64
2022/12/04 00:22:37;;;;;;;;;;;;;;;;;;5052028;28;19920;-64
2022/12/04 00:25:03;;;;;;;;;;;;;;;;;;5044739;28;19931;-64
2022/12/04 00:27:29;;;;;;;;;;;;;;;;;;5051928;28;20378;-64
2022/12/04 00:29:55;;;;;;;;;;;;;;;;;;5051413;28;19925;-64
2022/12/04 00:32:21;;;;;;;;;;;;;;;;;;5045044;28;19925;-64
2022/12/04 00:34:46;;;;;;;;;;;;;;;;;;5041577;28;19924;-64
2022/12/04 00:37:12;;;;;;;;;;;;;;;;;;5039793;28;20016;-64
2022/12/04 00:39:38;;;;;;;;;;;;;;;;;;5045172;28;19931;-64
2022/12/04 00:42:04;;;;;;;;;;;;;;;;;;5047630;28;20004;-64
2022/12/04 00:44:30;;;;;;;;;;;;;;;;;;5057702;28;19921;-64
2022/12/04 00:46:56;;;;;;;;;;;;;;;;;;5040475;28;20678;-65
2022/12/04 00:49:22;;;;;;;;;;;;;;;;;;5040982;28;20338;-65
2022/12/04 00:51:47;;;;;;;;;;;;;;;;;;5048846;28;20269;-64
2022/12/04 00:54:13;;;;;;;;;;;;;;;;;;5036972;28;20336;-64
2022/12/04 00:56:39;;;;;;;;;;;;;;;;;;5044753;28;19964;-64
2022/12/04 00:59:05;;;;;;;;;;;;;;;;;;5042879;28;19928;-64
2022/12/04 01:01:31;;;;;;;;;;;;;;;;;;5037512;28;19929;-64
2022/12/04 01:03:57;;;;;;;;;;;;;;;;;;5053980;28;19931;-64
2022/12/04 01:06:23;;;;;;;;;;;;;;;;;;5043004;28;19924;-65
2022/12/04 01:08:49;;;;;;;;;;;;;;;;;;5042937;28;19917;-64
2022/12/04 01:11:14;;;;;;;;;;;;;;;;;;5040566;28;19931;-64
2022/12/04 01:13:40;;;;;;;;;;;;;;;;;;5052550;28;19916;-64
2022/12/04 01:16:06;;;;;;;;;;;;;;;;;;5048264;28;20285;-65
2022/12/04 01:18:32;;;;;;;;;;;;;;;;;;5048754;28;19920;-64
2022/12/04 01:20:58;;;;;;;;;;;;;;;;;;5045225;28;19932;-64
2022/12/04 01:23:24;;;;;;;;;;;;;;;;;;5045863;28;20419;-64
2022/12/04 01:25:50;;;;;;;;;;;;;;;;;;5051004;28;19982;-64
2022/12/04 01:28:16;;;;;;;;;;;;;;;;;;5052194;28;20411;-64
2022/12/04 01:30:42;;;;;;;;;;;;;;;;;;5042092;28;19921;-64
2022/12/04 01:33:08;;;;;;;;;;;;;;;;;;5048912;28;19917;-64
2022/12/04 01:35:33;;;;;;;;;;;;;;;;;;5048495;28;19930;-64
2022/12/04 01:37:59;;;;;;;;;;;;;;;;;;5048041;28;19920;-64
2022/12/04 01:40:25;;;;;;;;;;;;;;;;;;5051340;28;19935;-64
2022/12/04 01:42:51;;;;;;;;;;;;;;;;;;5050840;28;19963;-64
2022/12/04 01:45:17;;;;;;;;;;;;;;;;;;5037806;28;20345;-64
2022/12/04 01:47:43;;;;;;;;;;;;;;;;;;5045831;28;19917;-64
2022/12/04 01:50:09;;;;;;;;;;;;;;;;;;5050810;28;20050;-64
2022/12/04 01:52:34;;;;;;;;;;;;;;;;;;5043998;28;19925;-64
2022/12/04 01:55:00;;;;;;;;;;;;;;;;;;5049630;28;20427;-65
2022/12/04 01:57:26;;;;;;;;;;;;;;;;;;5040250;28;20066;-64
2022/12/04 01:59:52;;;;;;;;;;;;;;;;;;5044282;28;20380;-64
2022/12/04 02:02:18;;;;;;;;;;;;;;;;;;5050371;28;20433;-64
2022/12/04 02:04:44;;;;;;;;;;;;;;;;;;5065747;28;19952;-64
2022/12/04 02:07:10;;;;;;;;;;;;;;;;;;5073597;28;19913;-64
2022/12/04 02:09:38;;;;;;;;;;;;;;;;;;5070365;28;19932;-64
2022/12/04 02:12:04;;;;;;;;;;;;;;;;;;5077572;28;20099;-64
2022/12/04 02:14:29;;;;;;;;;;;;;;;;;;5073808;28;20274;-64
2022/12/04 02:16:56;;;;;;;;;;;;;;;;;;5072187;28;19972;-64
2022/12/04 02:19:22;;;;;;;;;;;;;;;;;;5078251;28;19909;-63
2022/12/04 02:21:47;;;;;;;;;;;;;;;;;;5074130;28;19932;-64
2022/12/04 02:24:13;;;;;;;;;;;;;;;;;;5077585;28;19940;-64
2022/12/04 02:26:39;;;;;;;;;;;;;;;;;;5077587;28;19944;-64
2022/12/04 02:29:05;;;;;;;;;;;;;;;;;;5076867;28;19921;-64
2022/12/04 02:31:31;;;;;;;;;;;;;;;;;;5077012;28;19924;-64
2022/12/04 02:33:57;;;;;;;;;;;;;;;;;;5068869;28;19920;-64
2022/12/04 02:36:23;;;;;;;;;;;;;;;;;;5079119;28;19929;-64
2022/12/04 02:38:49;;;;;;;;;;;;;;;;;;5071803;28;19920;-64
2022/12/04 02:41:15;;;;;;;;;;;;;;;;;;5070279;28;19913;-63
2022/12/04 02:43:40;;;;;;;;;;;;;;;;;;5068834;28;19959;-63
2022/12/04 02:46:06;;;;;;;;;;;;;;;;;;5077008;28;19921;-64
2022/12/04 02:48:32;;;;;;;;;;;;;;;;;;5069914;28;19921;-64
2022/12/04 02:50:58;;;;;;;;;;;;;;;;;;5078520;28;19920;-63
2022/12/04 02:53:24;;;;;;;;;;;;;;;;;;5068869;28;20182;-64
2022/12/04 02:55:50;;;;;;;;;;;;;;;;;;5070188;28;19940;-63
2022/12/04 02:58:16;;;;;;;;;;;;;;;;;;5068435;28;19928;-64
2022/12/04 03:00:41;;;;;;;;;;;;;;;;;;5069479;28;19984;-64
2022/12/04 03:03:07;;;;;;;;;;;;;;;;;;5079531;28;20506;-63
2022/12/04 03:05:33;;;;;;;;;;;;;;;;;;5069763;28;19920;-64
2022/12/04 03:07:59;;;;;;;;;;;;;;;;;;5072939;28;19933;-64
2022/12/04 03:10:25;;;;;;;;;;;;;;;;;;5070383;28;19984;-64
2022/12/04 03:12:51;;;;;;;;;;;;;;;;;;5068285;28;19925;-64
2022/12/04 03:15:17;;;;;;;;;;;;;;;;;;5078320;28;19924;-63
2022/12/04 03:17:43;;;;;;;;;;;;;;;;;;5083577;28;19976;-64
2022/12/04 03:20:09;;;;;;;;;;;;;;;;;;5071464;28;19956;-64
2022/12/04 03:22:35;;;;;;;;;;;;;;;;;;5077881;28;19921;-64
2022/12/04 03:25:00;;;;;;;;;;;;;;;;;;5074081;28;19975;-64
2022/12/04 03:27:26;;;;;;;;;;;;;;;;;;5068551;28;19916;-64
2022/12/04 03:29:52;;;;;;;;;;;;;;;;;;5074774;28;19908;-64
2022/12/04 03:32:18;;;;;;;;;;;;;;;;;;5078986;28;19920;-64
2022/12/04 03:34:44;;;;;;;;;;;;;;;;;;5076113;28;19968;-64
2022/12/04 03:37:10;;;;;;;;;;;;;;;;;;5077771;28;19927;-63
2022/12/04 03:39:35;;;;;;;;;;;;;;;;;;5071953;28;19928;-64
2022/12/04 03:42:01;;;;;;;;;;;;;;;;;;5065713;28;20323;-64
2022/12/04 03:44:27;;;;;;;;;;;;;;;;;;5079965;28;20400;-64
2022/12/04 03:46:53;;;;;;;;;;;;;;;;;;5069853;28;19929;-64
2022/12/04 03:49:19;;;;;;;;;;;;;;;;;;5072664;28;25156;-64
2022/12/04 03:51:45;;;;;;;;;;;;;;;;;;5052308;28;20108;-63
2022/12/04 03:54:11;;;;;;;;;;;;;;;;;;5072254;28;20303;-64
2022/12/04 03:56:36;;;;;;;;;;;;;;;;;;5062941;28;20273;-64
2022/12/04 03:59:02;;;;;;;;;;;;;;;;;;5082876;28;19951;-64
2022/12/04 04:01:28;;;;;;;;;;;;;;;;;;5080559;28;19955;-64
2022/12/04 04:03:54;;;;;;;;;;;;;;;;;;5075806;28;20325;-63
2022/12/04 04:06:20;;;;;;;;;;;;;;;;;;5075763;28;19932;-64
2022/12/04 04:08:46;;;;;;;;;;;;;;;;;;5081093;28;19924;-63
2022/12/04 04:11:12;;;;;;;;;;;;;;;;;;5085998;28;19948;-64
2022/12/04 04:24:37;;;;;;;;;;;;;;;;;;5082794;28;19932;-63
2022/12/04 04:27:03;;;;;;;;;;;;;;;;;;5084776;28;19932;-64
2022/12/04 04:29:29;;;;;;;;;;;;;;;;;;5081358;28;20312;-64
2022/12/04 04:31:55;;;;;;;;;;;;;;;;;;5075620;28;20419;-64
2022/12/04 04:34:20;;;;;;;;;;;;;;;;;;5075772;28;19921;-64
2022/12/04 04:36:46;;;;;;;;;;;;;;;;;;5075812;28;19925;-64
2022/12/04 04:39:12;;;;;;;;;;;;;;;;;;5075224;28;19930;-64
2022/12/04 04:41:38;;;;;;;;;;;;;;;;;;5082917;28;19966;-64
2022/12/04 04:44:04;;;;;;;;;;;;;;;;;;5071493;28;19931;-64
2022/12/04 04:46:30;;;;;;;;;;;;;;;;;;5066922;28;19909;-63
2022/12/04 04:48:56;;;;;;;;;;;;;;;;;;5080558;28;19927;-64
2022/12/04 04:51:22;;;;;;;;;;;;;;;;;;5063295;28;19921;-64
2022/12/04 04:53:48;;;;;;;;;;;;;;;;;;5076976;28;19964;-64
2022/12/04 04:56:13;;;;;;;;;;;;;;;;;;5074685;28;20221;-64
2022/12/04 04:58:39;;;;;;;;;;;;;;;;;;5067970;28;19909;-64
2022/12/04 05:01:05;;;;;;;;;;;;;;;;;;5071828;28;20388;-64
2022/12/04 05:03:31;;;;;;;;;;;;;;;;;;5075922;28;19942;-64
2022/12/04 05:05:57;;;;;;;;;;;;;;;;;;5065349;28;19932;-64
2022/12/04 05:08:23;;;;;;;;;;;;;;;;;;5070843;28;19932;-64
2022/12/04 05:10:49;;;;;;;;;;;;;;;;;;5071763;28;19916;-64
2022/12/04 05:13:14;;;;;;;;;;;;;;;;;;5079316;28;19912;-63
2022/12/04 05:15:40;;;;;;;;;;;;;;;;;;5073958;28;19972;-64
2022/12/04 05:18:06;;;;;;;;;;;;;;;;;;5074127;28;19924;-64
2022/12/04 05:20:32;;;;;;;;;;;;;;;;;;5074930;28;19921;-64
2022/12/04 05:22:58;;;;;;;;;;;;;;;;;;5066518;28;20003;-64
2022/12/04 05:25:24;;;;;;;;;;;;;;;;;;5088374;28;20142;-63
2022/12/04 05:27:49;;;;;;;;;;;;;;;;;;5081169;28;19921;-64
2022/12/04 05:30:15;;;;;;;;;;;;;;;;;;5080908;28;19912;-64
2022/12/04 05:32:41;;;;;;;;;;;;;;;;;;5069914;28;21130;-63
2022/12/04 05:35:07;;;;;;;;;;;;;;;;;;5072565;28;19991;-64
2022/12/04 05:37:33;;;;;;;;;;;;;;;;;;5072245;28;19943;-64
2022/12/04 05:39:59;;;;;;;;;;;;;;;;;;5074456;28;20367;-64
2022/12/04 05:42:25;;;;;;;;;;;;;;;;;;5072912;28;19933;-64
2022/12/04 05:44:51;;;;;;;;;;;;;;;;;;5068706;28;19984;-64
2022/12/04 05:47:16;;;;;;;;;;;;;;;;;;5072245;28;19915;-64
2022/12/04 05:49:42;;;;;;;;;;;;;;;;;;5059927;28;19947;-63
2022/12/04 05:52:09;;;;;;;;;;;;;;;;;;5073299;28;19965;-64
2022/12/04 05:54:35;;;;;;;;;;;;;;;;;;5078820;28;19921;-64
2022/12/04 05:57:01;;;;;;;;;;;;;;;;;;5077706;28;19955;-64
2022/12/04 05:59:27;;;;;;;;;;;;;;;;;;5082818;28;19936;-64
2022/12/04 06:01:53;;;;;;;;;;;;;;;;;;5078696;28;19935;-64
2022/12/04 06:04:18;;;;;;;;;;;;;;;;;;5081522;28;19913;-64
2022/12/04 06:06:44;;;;;;;;;;;;;;;;;;5068239;28;20083;-64
2022/12/04 06:09:10;;;;;;;;;;;;;;;;;;5073118;28;19925;-64
2022/12/04 06:11:36;;;;;;;;;;;;;;;;;;5074099;28;19932;-63
2022/12/04 06:14:02;;;;;;;;;;;;;;;;;;5070211;28;19920;-64
2022/12/04 06:16:28;;;;;;;;;;;;;;;;;;5072263;28;19936;-64
2022/12/04 06:18:53;;;;;;;;;;;;;;;;;;5073546;28;20065;-64
2022/12/04 06:21:19;;;;;;;;;;;;;;;;;;5080612;28;20342;-64
2022/12/04 06:23:45;;;;;;;;;;;;;;;;;;5077237;28;19920;-64
2022/12/04 06:26:11;;;;;;;;;;;;;;;;;;5074300;28;19920;-63
2022/12/04 06:28:37;;;;;;;;;;;;;;;;;;5071276;28;20154;-64
2022/12/04 06:31:03;;;;;;;;;;;;;;;;;;5069669;28;19936;-63
2022/12/04 06:33:29;;;;;;;;;;;;;;;;;;5072879;28;19943;-64
2022/12/04 06:35:55;;;;;;;;;;;;;;;;;;5068595;28;19929;-64
2022/12/04 06:38:21;;;;;;;;;;;;;;;;;;5068781;28;19921;-64
2022/12/04 06:40:47;;;;;;;;;;;;;;;;;;5073506;28;19944;-64
2022/12/04 06:43:12;;;;;;;;;;;;;;;;;;5077298;28;19920;-64
2022/12/04 06:45:38;;;;;;;;;;;;;;;;;;5079851;28;20151;-64
2022/12/04 06:48:04;;;;;;;;;;;;;;;;;;5078565;28;19984;-64
2022/12/04 06:50:30;;;;;;;;;;;;;;;;;;5075599;28;19925;-63
2022/12/04 06:52:56;;;;;;;;;;;;;;;;;;5071876;28;19921;-63
2022/12/04 06:55:22;;;;;;;;;;;;;;;;;;5072181;28;19936;-64
2022/12/04 06:57:48;;;;;;;;;;;;;;;;;;5077479;28;19932;-64
2022/12/04 07:00:14;;;;;;;;;;;;;;;;;;5074609;28;19921;-63
2022/12/04 07:02:40;;;;;;;;;;;;;;;;;;5071327;28;19956;-62
2022/12/04 07:05:06;;;;;;;;;;;;;;;;;;5072046;28;19928;-64
2022/12/04 07:07:31;;;;;;;;;;;;;;;;;;5075215;28;19954;-64
2022/12/04 07:09:57;;;;;;;;;;;;;;;;;;5083323;28;19913;-64
2022/12/04 07:12:23;;;;;;;;;;;;;;;;;;5067741;28;19932;-64
2022/12/04 07:14:49;;;;;;;;;;;;;;;;;;5079108;28;19944;-64
2022/12/04 07:17:15;;;;;;;;;;;;;;;;;;5072492;28;19921;-64
2022/12/04 07:19:41;;;;;;;;;;;;;;;;;;5072262;28;20183;-63
2022/12/04 07:22:07;;;;;;;;;;;;;;;;;;5060496;28;19919;-63
2022/12/04 07:24:33;;;;;;;;;;;;;;;;;;5083922;28;19928;-64
2022/12/04 07:26:59;;;;;;;;;;;;;;;;;;5079013;28;19959;-64
2022/12/04 07:29:25;;;;;;;;;;;;;;;;;;5063964;28;19935;-64
2022/12/04 07:31:51;;;;;;;;;;;;;;;;;;5067044;28;19935;-64
2022/12/04 07:34:17;;;;;;;;;;;;;;;;;;5068550;28;19925;-64
2022/12/04 07:36:42;;;;;;;;;;;;;;;;;;5067243;28;20233;-63
2022/12/04 07:39:09;;;;;;;;;;;;;;;;;;5065612;28;19920;-64
2022/12/04 07:41:35;;;;;;;;;;;;;;;;;;5060132;28;19920;-64
2022/12/04 07:44:01;;;;;;;;;;;;;;;;;;5072817;28;19932;-64
2022/12/04 07:46:27;;;;;;;;;;;;;;;;;;5074063;28;19996;-64
2022/12/04 07:48:53;;;;;;;;;;;;;;;;;;5073788;28;19933;-64
2022/12/04 07:51:19;;;;;;;;;;;;;;;;;;5076557;28;19980;-64
2022/12/04 07:53:44;;;;;;;;;;;;;;;;;;5073122;28;19920;-64
2022/12/04 07:56:10;;;;;;;;;;;;;;;;;;5070551;28;19932;-64
2022/12/04 07:58:36;;;;;;;;;;;;;;;;;;5070628;28;19959;-64
2022/12/04 08:01:02;;;;;;;;;;;;;;;;;;5068519;28;19919;-64
2022/12/04 08:03:28;;;;;;;;;;;;;;;;;;5066809;28;19921;-64
2022/12/04 08:05:54;;;;;;;;;;;;;;;;;;5069156;28;19929;-64
2022/12/04 08:08:20;;;;;;;;;;;;;;;;;;5074460;28;19969;-63
2022/12/04 08:10:45;;;;;;;;;;;;;;;;;;5071478;28;19948;-64
2022/12/04 08:13:11;;;;;;;;;;;;;;;;;;5058817;28;19921;-64
2022/12/04 08:15:37;;;;;;;;;;;;;;;;;;5063582;28;19932;-64
2022/12/04 08:18:03;;;;;;;;;;;;;;;;;;5060326;28;19933;-64
2022/12/04 08:20:29;;;;;;;;;;;;;;;;;;5074520;28;19979;-64
2022/12/04 08:22:55;;;;;;;;;;;;;;;;;;5062897;28;19931;-64
2022/12/04 08:25:21;;;;;;;;;;;;;;;;;;5065175;28;19956;-64
2022/12/04 08:27:46;;;;;;;;;;;;;;;;;;5061174;28;19924;-64
2022/12/04 08:30:12;;;;;;;;;;;;;;;;;;5067538;28;19940;-64
2022/12/04 08:32:38;;;;;;;;;;;;;;;;;;5035595;28;19930;-64
2022/12/04 08:35:04;;;;;;;;;;;;;;;;;;5079342;28;20434;-64
2022/12/04 08:37:30;;;;;;;;;;;;;;;;;;5072049;28;19921;-64
2022/12/04 08:39:57;;;;;;;;;;;;;;;;;;5075582;28;19956;-64
2022/12/04 08:42:23;;;;;;;;;;;;;;;;;;5062169;28;19932;-64
2022/12/04 08:44:49;;;;;;;;;;;;;;;;;;5072557;28;19924;-64
2022/12/04 08:47:14;;;;;;;;;;;;;;;;;;5062902;28;19943;-64
2022/12/04 08:49:40;;;;;;;;;;;;;;;;;;5080373;28;19959;-64
2022/12/04 08:52:06;;;;;;;;;;;;;;;;;;5066728;28;19947;-64
2022/12/04 08:54:32;;;;;;;;;;;;;;;;;;5065692;28;21536;-62
2022/12/04 08:56:58;;;;;;;;;;;;;;;;;;5061704;28;19916;-64
2022/12/04 08:59:24;;;;;;;;;;;;;;;;;;5047112;28;19928;-63
2022/12/04 09:01:50;;;;;;;;;;;;;;;;;;5066166;28;19936;-63
2022/12/04 09:04:16;;;;;;;;;;;;;;;;;;5069437;28;19923;-63
2022/12/04 09:06:42;;;;;;;;;;;;;;;;;;5057777;28;19954;-61
2022/12/04 09:09:08;;;;;;;;;;;;;;;;;;5044989;28;20431;-64
2022/12/04 09:11:34;;;;;;;;;;;;;;;;;;5056934;28;20007;-62
2022/12/04 09:13:59;;;;;;;;;;;;;;;;;;5062207;28;19935;-65
2022/12/04 09:16:25;;;;;;;;;;;;;;;;;;5044304;28;19920;-64
2022/12/04 09:18:51;;;;;;;;;;;;;;;;;;5039677;28;20488;-65
2022/12/04 09:21:17;;;;;;;;;;;;;;;;;;5053314;28;19916;-64
2022/12/04 09:23:43;;;;;;;;;;;;;;;;;;5049397;28;20352;-64
2022/12/04 09:26:09;;;;;;;;;;;;;;;;;;5054103;23;20417;-53
2022/12/04 09:28:35;;;;;;;;;;;;;;;;;;4978175;28;19930;-53
2022/12/04 09:31:01;;;;;;;;;;;;;;;;;;4968238;28;20009;-53
2022/12/04 09:33:26;;;;;;;;;;;;;;;;;;4977464;28;20260;-53
2022/12/04 09:35:52;;;;;;;;;;;;;;;;;;4985778;28;19926;-53
2022/12/04 09:38:18;;;;;;;;;;;;;;;;;;4960916;28;19917;-53
2022/12/04 09:40:44;;;;;;;;;;;;;;;;;;4988200;28;20448;-53
2022/12/04 09:43:10;;;;;;;;;;;;;;;;;;4990684;28;19924;-53
2022/12/04 09:45:36;;;;;;;;;;;;;;;;;;4946198;28;20066;-54
2022/12/04 09:48:02;;;;;;;;;;;;;;;;;;4967558;28;19932;-52
2022/12/04 09:50:28;;;;;;;;;;;;;;;;;;4980369;28;19926;-53
2022/12/04 09:52:57;;;;;;;;;;;;;;;;;;4991260;28;19925;-53
2022/12/04 09:55:22;;;;;;;;;;;;;;;;;;4973989;28;20570;-53
2022/12/04 09:57:48;;;;;;;;;;;;;;;;;;4985027;28;20417;-54
2022/12/04 10:00:14;;;;;;;;;;;;;;;;;;5007946;28;19975;-53
2022/12/04 10:02:40;;;;;;;;;;;;;;;;;;4976721;28;19929;-53
2022/12/04 10:05:06;;;;;;;;;;;;;;;;;;4993473;28;19993;-54
2022/12/04 10:07:32;;;;;;;;;;;;;;;;;;4989892;28;19920;-53
2022/12/04 10:09:58;;;;;;;;;;;;;;;;;;4991322;28;20231;-52
2022/12/04 10:12:23;;;;;;;;;;;;;;;;;;4986075;28;20294;-54
2022/12/04 10:14:49;;;;;;;;;;;;;;;;;;5001886;28;19941;-53
2022/12/04 10:17:15;;;;;;;;;;;;;;;;;;4991006;28;19932;-53
2022/12/04 10:19:41;;;;;;;;;;;;;;;;;;4990202;28;19944;-53
2022/12/04 10:22:07;;;;;;;;;;;;;;;;;;4984297;28;19930;-52
2022/12/04 10:24:33;;;;;;;;;;;;;;;;;;4984270;28;19921;-54
2022/12/04 10:26:59;;;;;;;;;;;;;;;;;;4987447;28;20357;-53
2022/12/04 10:29:24;;;;;;;;;;;;;;;;;;4972169;28;19926;-52
2022/12/04 10:31:50;;;;;;;;;;;;;;;;;;4975260;28;19967;-53
2022/12/04 10:34:16;;;;;;;;;;;;;;;;;;4973707;28;19925;-53
2022/12/04 10:36:42;;;;;;;;;;;;;;;;;;4967687;28;20278;-52
2022/12/04 10:39:08;;;;;;;;;;;;;;;;;;4960493;28;19931;-53
2022/12/04 10:41:34;;;;;;;;;;;;;;;;;;4969569;28;19929;-53
2022/12/04 10:44:00;;;;;;;;;;;;;;;;;;4955134;28;20575;-53
2022/12/04 10:46:25;;;;;;;;;;;;;;;;;;4956742;28;20018;-54
2022/12/04 10:48:51;;;;;;;;;;;;;;;;;;4953770;28;20389;-53
2022/12/04 10:51:17;;;;;;;;;;;;;;;;;;4972917;28;19926;-54
2022/12/04 10:53:43;;;;;;;;;;;;;;;;;;4964465;28;20288;-53
2022/12/04 10:56:10;;;;;;;;;;;;;;;;;;4965229;28;20031;-53
2022/12/04 10:58:36;;;;;;;;;;;;;;;;;;4978051;28;19922;-54
2022/12/04 11:01:02;;;;;;;;;;;;;;;;;;4987073;28;20500;-54
2022/12/04 11:03:28;;;;;;;;;;;;;;;;;;4947489;28;19922;-53
2022/12/04 11:05:54;;;;;;;;;;;;;;;;;;4956930;28;19926;-54
2022/12/04 11:08:20;;;;;;;;;;;;;;;;;;4995720;28;20642;-53
2022/12/04 11:10:46;;;;;;;;;;;;;;;;;;4985085;28;19930;-53
2022/12/04 11:13:12;;;;;;;;;;;;;;;;;;4992664;28;19922;-52
2022/12/04 11:15:37;;;;;;;;;;;;;;;;;;4993232;28;20442;-54
2022/12/04 11:18:03;;;;;;;;;;;;;;;;;;4995713;28;19922;-53
2022/12/04 11:20:29;;;;;;;;;;;;;;;;;;4985495;28;19929;-53
2022/12/04 11:22:58;;;;;;;;;;;;;;;;;;5003203;28;19927;-53
2022/12/04 11:25:24;;;;;;;;;;;;;;;;;;4997018;28;19921;-55
2022/12/04 11:27:49;;;;;;;;;;;;;;;;;;4994901;28;19932;-53
2022/12/04 11:30:15;;;;;;;;;;;;;;;;;;4996672;28;19929;-53
2022/12/04 11:32:41;;;;;;;;;;;;;;;;;;4975304;28;19969;-54
2022/12/04 11:35:07;;;;;;;;;;;;;;;;;;4979635;28;20016;-53
2022/12/04 11:37:33;;;;;;;;;;;;;;;;;;4976716;28;19983;-53
2022/12/04 11:39:59;;;;;;;;;;;;;;;;;;4968477;28;20315;-54
2022/12/04 11:42:25;;;;;;;;;;;;;;;;;;4988855;28;20012;-53
2022/12/04 11:44:51;;;;;;;;;;;;;;;;;;4979783;28;20483;-53
2022/12/04 11:47:17;;;;;;;;;;;;;;;;;;5001041;28;19948;-54
2022/12/04 11:49:42;;;;;;;;;;;;;;;;;;4992182;28;20876;-53
2022/12/04 11:52:08;;;;;;;;;;;;;;;;;;4984477;28;19919;-53
2022/12/04 11:54:34;;;;;;;;;;;;;;;;;;4994917;28;21293;-52
2022/12/04 11:57:00;;;;;;;;;;;;;;;;;;5001335;28;19932;-53
2022/12/04 11:59:26;;;;;;;;;;;;;;;;;;4986420;28;19932;-54
2022/12/04 12:01:52;;;;;;;;;;;;;;;;;;4984855;28;19929;-53
2022/12/04 12:04:18;;;;;;;;;;;;;;;;;;5005064;28;19951;-54
2022/12/04 12:06:44;;;;;;;;;;;;;;;;;;4993875;28;19929;-54
2022/12/04 12:09:10;;;;;;;;;;;;;;;;;;4997994;28;19932;-53
2022/12/04 12:11:36;;;;;;;;;;;;;;;;;;4979505;28;19926;-53
2022/12/04 12:14:02;;;;;;;;;;;;;;;;;;4982440;28;19979;-54
2022/12/04 12:16:28;;;;;;;;;;;;;;;;;;4991661;28;19925;-53
2022/12/04 12:18:53;;;;;;;;;;;;;;;;;;5000090;28;19933;-53
2022/12/04 12:21:19;;;;;;;;;;;;;;;;;;4997337;28;19921;-53
2022/12/04 12:23:45;;;;;;;;;;;;;;;;;;4994550;28;20294;-53
2022/12/04 12:26:11;;;;;;;;;;;;;;;;;;4981751;28;20521;-53
2022/12/04 12:28:37;;;;;;;;;;;;;;;;;;4993713;28;20439;-54
2022/12/04 12:31:03;;;;;;;;;;;;;;;;;;4988584;28;19926;-54
2022/12/04 12:33:29;;;;;;;;;;;;;;;;;;5002663;28;19978;-58
2022/12/04 12:35:55;;;;;;;;;;;;;;;;;;4992223;28;19932;-55
2022/12/04 12:38:21;;;;;;;;;;;;;;;;;;4992042;28;20481;-52
2022/12/04 12:40:47;;;;;;;;;;;;;;;;;;4990483;28;19933;-53
2022/12/04 12:43:12;;;;;;;;;;;;;;;;;;4991065;28;19925;-53
2022/12/04 12:45:38;;;;;;;;;;;;;;;;;;4984011;28;19949;-53
2022/12/04 12:48:04;;;;;;;;;;;;;;;;;;4989784;28;19931;-53
2022/12/04 12:50:30;;;;;;;;;;;;;;;;;;4996490;28;19926;-54
2022/12/04 12:52:56;;;;;;;;;;;;;;;;;;4998283;28;20434;-53
2022/12/04 12:55:22;;;;;;;;;;;;;;;;;;4981816;28;20025;-53
2022/12/04 12:57:48;;;;;;;;;;;;;;;;;;4993703;28;19921;-53
2022/12/04 13:00:14;;;;;;;;;;;;;;;;;;4989137;28;19936;-52
2022/12/04 13:02:40;;;;;;;;;;;;;;;;;;4993654;28;19922;-54
2022/12/04 13:05:05;;;;;;;;;;;;;;;;;;4989723;28;20382;-54
2022/12/04 13:07:31;;;;;;;;;;;;;;;;;;4982827;28;21429;-54
2022/12/04 13:09:57;;;;;;;;;;;;;;;;;;4989833;28;20390;-54
2022/12/04 13:12:23;;;;;;;;;;;;;;;;;;4993216;28;19936;-53
2022/12/04 13:14:49;;;;;;;;;;;;;;;;;;4982826;28;19921;-54
2022/12/04 13:17:15;;;;;;;;;;;;;;;;;;4984181;28;19921;-53
2022/12/04 13:19:43;;;;;;;;;;;;;;;;;;4975116;28;19926;-53
2022/12/04 13:22:08;;;;;;;;;;;;;;;;;;4972594;28;19940;-53
2022/12/04 13:24:34;;;;;;;;;;;;;;;;;;4986804;28;19917;-52
2022/12/04 13:27:00;;;;;;;;;;;;;;;;;;4981711;28;20058;-54
2022/12/04 13:29:26;;;;;;;;;;;;;;;;;;4970053;28;20359;-53
2022/12/04 13:31:52;;;;;;;;;;;;;;;;;;4985943;28;19971;-54
2022/12/04 13:34:18;;;;;;;;;;;;;;;;;;4978051;28;19960;-54
2022/12/04 13:36:44;;;;;;;;;;;;;;;;;;4998037;28;19983;-53
2022/12/04 13:39:10;;;;;;;;;;;;;;;;;;4978885;28;20374;-54
2022/12/04 13:41:35;;;;;;;;;;;;;;;;;;4984533;28;19928;-53
2022/12/04 13:44:01;;;;;;;;;;;;;;;;;;4980309;28;20424;-54
2022/12/04 13:46:27;;;;;;;;;;;;;;;;;;4997970;28;19925;-52
2022/12/04 13:48:53;;;;;;;;;;;;;;;;;;4989868;28;20016;-53
2022/12/04 13:51:19;;;;;;;;;;;;;;;;;;4977517;28;21188;-54
2022/12/04 13:53:45;;;;;;;;;;;;;;;;;;4980401;28;19967;-53
2022/12/04 13:56:11;;;;;;;;;;;;;;;;;;4981453;28;19944;-55
2022/12/04 13:58:37;;;;;;;;;;;;;;;;;;4995190;28;20579;-53
2022/12/04 14:01:03;;;;;;;;;;;;;;;;;;4981967;28;19930;-53
2022/12/04 14:03:29;;;;;;;;;;;;;;;;;;4978366;28;19952;-53
2022/12/04 14:05:54;;;;;;;;;;;;;;;;;;4980018;28;19961;-53
2022/12/04 14:08:20;;;;;;;;;;;;;;;;;;4993232;28;19919;-53
2022/12/04 14:10:46;;;;;;;;;;;;;;;;;;4973634;28;19922;-54
2022/12/04 14:13:12;;;;;;;;;;;;;;;;;;4996231;28;19932;-53
2022/12/04 14:15:38;;;;;;;;;;;;;;;;;;4987472;28;19921;-53
2022/12/04 14:18:04;;;;;;;;;;;;;;;;;;4987908;28;19928;-53
2022/12/04 14:20:30;;;;;;;;;;;;;;;;;;5002645;28;19932;-54
2022/12/04 14:22:56;;;;;;;;;;;;;;;;;;4996260;28;19925;-53
2022/12/04 14:25:22;;;;;;;;;;;;;;;;;;4993087;28;20393;-54
2022/12/04 14:27:50;;;;;;;;;;;;;;;;;;4996071;28;19964;-53
2022/12/04 14:30:16;;;;;;;;;;;;;;;;;;4990159;28;20890;-53
2022/12/04 14:32:42;;;;;;;;;;;;;;;;;;4973878;28;19917;-53
2022/12/04 14:35:08;;;;;;;;;;;;;;;;;;4984561;28;20892;-53
2022/12/04 14:37:34;;;;;;;;;;;;;;;;;;4976561;28;19930;-53
2022/12/04 14:40:00;;;;;;;;;;;;;;;;;;4973973;28;20378;-53
2022/12/04 14:42:26;;;;;;;;;;;;;;;;;;4991458;28;19928;-53
2022/12/04 14:44:51;;;;;;;;;;;;;;;;;;4993587;28;19936;-53
2022/12/04 14:47:17;;;;;;;;;;;;;;;;;;4986800;28;20023;-53
2022/12/04 14:49:43;;;;;;;;;;;;;;;;;;4980416;28;19921;-54
2022/12/04 14:52:09;;;;;;;;;;;;;;;;;;4983020;28;19926;-53
2022/12/04 14:54:35;;;;;;;;;;;;;;;;;;5001803;28;19920;-53
2022/12/04 14:57:01;;;;;;;;;;;;;;;;;;4985137;28;21118;-53
2022/12/04 14:59:27;;;;;;;;;;;;;;;;;;4989516;28;19917;-52
2022/12/04 15:01:53;;;;;;;;;;;;;;;;;;4976328;28;20264;-53
2022/12/04 15:04:19;;;;;;;;;;;;;;;;;;4980884;28;20441;-54
2022/12/04 15:06:45;;;;;;;;;;;;;;;;;;4989049;28;19921;-54
2022/12/04 15:14:40;;;;;;;;;;;;;;;;;;4975307;28;19978;-53
2022/12/04 15:17:06;;;;;;;;;;;;;;;;;;4977480;28;19917;-55
2022/12/04 15:19:32;;;;;;;;;;;;;;;;;;4980616;28;19930;-53
2022/12/04 15:21:58;;;;;;;;;;;;;;;;;;4967217;28;20397;-54
2022/12/04 15:24:24;;;;;;;;;;;;;;;;;;4965144;28;19973;-53
2022/12/04 15:26:49;;;;;;;;;;;;;;;;;;4970459;28;20530;-54
2022/12/04 15:29:16;;;;;;;;;;;;;;;;;;4965102;28;19921;-54
2022/12/04 15:31:45;;;;;;;;;;;;;;;;;;4946362;28;20272;-54
2022/12/04 15:34:11;;;;;;;;;;;;;;;;;;4985217;28;20426;-55
2022/12/04 15:36:37;;;;;;;;;;;;;;;;;;4965668;28;19926;-54
2022/12/04 15:39:03;;;;;;;;;;;;;;;;;;4953198;28;20315;-54
2022/12/04 15:41:29;;;;;;;;;;;;;;;;;;4967364;28;19978;-54
2022/12/04 15:43:54;;;;;;;;;;;;;;;;;;4974388;28;19926;-54
2022/12/04 15:46:20;;;;;;;;;;;;;;;;;;4995600;28;20032;-53
2022/12/04 15:48:46;;;;;;;;;;;;;;;;;;4979747;28;20405;-53
2022/12/04 15:51:12;;;;;;;;;;;;;;;;;;4966315;28;19926;-54
2022/12/04 15:53:38;;;;;;;;;;;;;;;;;;4978217;28;19922;-53
2022/12/04 15:56:04;;;;;;;;;;;;;;;;;;4966864;28;19925;-54
2022/12/04 15:58:30;;;;;;;;;;;;;;;;;;4980469;28;19925;-53
2022/12/04 16:00:56;;;;;;;;;;;;;;;;;;4965322;28;19926;-54
2022/12/04 16:03:22;;;;;;;;;;;;;;;;;;4975326;28;19925;-54
2022/12/04 16:05:48;;;;;;;;;;;;;;;;;;4966648;28;20577;-53
2022/12/04 16:08:13;;;;;;;;;;;;;;;;;;4980670;28;19924;-55
2022/12/04 16:10:39;;;;;;;;;;;;;;;;;;4978235;28;19982;-54
2022/12/04 16:13:05;;;;;;;;;;;;;;;;;;4992994;28;19920;-54
2022/12/04 16:15:31;;;;;;;;;;;;;;;;;;4985680;28;19933;-54
2022/12/04 16:17:57;;;;;;;;;;;;;;;;;;4992639;28;20320;-54
2022/12/04 16:20:23;;;;;;;;;;;;;;;;;;4947014;28;19931;-54
2022/12/04 16:22:49;;;;;;;;;;;;;;;;;;4985600;28;21359;-53
2022/12/04 16:25:14;;;;;;;;;;;;;;;;;;4973855;28;20369;-55
2022/12/04 16:27:40;;;;;;;;;;;;;;;;;;4971683;28;19930;-53
2022/12/04 16:30:06;;;;;;;;;;;;;;;;;;4978112;28;20028;-54
2022/12/04 16:32:32;;;;;;;;;;;;;;;;;;5004967;28;19925;-52
2022/12/04 16:34:58;;;;;;;;;;;;;;;;;;4966743;28;19926;-55
2022/12/04 16:37:24;;;;;;;;;;;;;;;;;;4941159;28;20380;-55
2022/12/04 16:39:50;;;;;;;;;;;;;;;;;;4961110;28;19945;-53
2022/12/04 16:42:16;;;;;;;;;;;;;;;;;;4969056;28;19930;-54
2022/12/04 16:44:41;;;;;;;;;;;;;;;;;;4962480;28;19967;-55
2022/12/04 16:47:07;;;;;;;;;;;;;;;;;;4949569;28;19947;-53
2022/12/04 16:49:33;;;;;;;;;;;;;;;;;;4967335;28;19981;-54
2022/12/04 16:51:59;;;;;;;;;;;;;;;;;;4971212;28;20303;-53